Time;durP1;ratioP1;P1;durP2;ratioP2;P2;SDS_P1;SDS_P2;PMS_P1;PMS_P2;Temp;Humidity;BMP_temperature;BMP_pressure;BME280_temperature;BME280_humidity;BME280_pressure;Samples;Min_cycle;Max_cycle;Signal;HPM_P1;HPM_P2
2022/08/03 00:00:56;;;;;;;13.27;6.10;;;;;;;;;;4912454;29;20055;-68
2022/08/03 00:03:27;;;;;;;13.88;5.22;;;;;;;;;;4912962;29;20056;-66
2022/08/03 00:05:57;;;;;;;14.88;5.68;;;;;;;;;;4912840;29;20070;-66
2022/08/03 00:08:33;;;;;;;16.60;5.55;;;;;;;;;;4912918;29;20064;-67
2022/08/03 00:11:08;;;;;;;14.32;5.63;;;;;;;;;;4893573;29;20572;-69
2022/08/03 00:13:38;;;;;;;21.80;6.40;;;;;;;;;;4893617;29;20071;-68
2022/08/03 00:16:09;;;;;;;14.00;5.45;;;;;;;;;;4893763;29;20394;-67
2022/08/03 00:18:40;;;;;;;18.63;6.40;;;;;;;;;;4862597;29;20513;-67
2022/08/03 00:21:10;;;;;;;14.63;5.95;;;;;;;;;;4918377;29;20512;-69
2022/08/03 00:23:43;;;;;;;16.33;5.72;;;;;;;;;;4955895;28;20054;-67
2022/08/03 00:26:21;;;;;;;14.05;6.13;;;;;;;;;;4969771;28;20059;-66
2022/08/03 00:28:51;;;;;;;16.20;5.68;;;;;;;;;;4969881;28;20066;-68
2022/08/03 00:31:21;;;;;;;24.05;6.35;;;;;;;;;;4947465;28;20051;-66
2022/08/03 00:34:11;;;;;;;23.48;6.38;;;;;;;;;;4969857;28;20061;-67
2022/08/03 00:36:42;;;;;;;15.20;6.10;;;;;;;;;;4899298;29;20058;-67
2022/08/03 00:39:12;;;;;;;14.60;5.68;;;;;;;;;;4931450;29;20063;-67
2022/08/03 00:41:42;;;;;;;15.60;6.00;;;;;;;;;;4931075;29;20056;-67
2022/08/03 00:44:12;;;;;;;13.43;5.65;;;;;;;;;;4915489;29;20582;-67
2022/08/03 00:46:43;;;;;;;12.80;5.95;;;;;;;;;;4915661;29;20054;-67
2022/08/03 00:49:14;;;;;;;13.45;5.45;;;;;;;;;;4942898;28;20050;-66
2022/08/03 00:51:46;;;;;;;13.57;6.07;;;;;;;;;;4937473;28;20055;-67
2022/08/03 00:54:17;;;;;;;15.57;6.47;;;;;;;;;;4969897;28;20058;-67
2022/08/03 00:56:49;;;;;;;12.50;6.32;;;;;;;;;;4921530;28;20058;-66
2022/08/03 00:59:30;;;;;;;13.60;6.40;;;;;;;;;;4937569;28;20415;-66
2022/08/03 01:02:00;;;;;;;15.77;6.30;;;;;;;;;;4949933;28;20062;-66
2022/08/03 01:04:30;;;;;;;16.05;5.57;;;;;;;;;;4931127;29;20067;-69
2022/08/03 01:07:12;;;;;;;13.27;6.05;;;;;;;;;;4930883;29;20067;-67
2022/08/03 01:10:01;;;;;;;11.95;5.80;;;;;;;;;;4926640;29;20052;-67
2022/08/03 01:12:55;;;;;;;20.98;5.75;;;;;;;;;;4931044;29;20064;-67
2022/08/03 01:15:45;;;;;;;11.55;5.38;;;;;;;;;;4911855;29;20055;-68
2022/08/03 01:18:24;;;;;;;14.52;7.03;;;;;;;;;;4911962;29;20444;-66
2022/08/03 01:21:00;;;;;;;12.98;5.93;;;;;;;;;;4911827;29;20064;-67
2022/08/03 01:23:51;;;;;;;11.25;5.72;;;;;;;;;;4932380;29;20059;-67
2022/08/03 01:26:57;;;;;;;15.02;6.05;;;;;;;;;;4923260;28;20065;-66
2022/08/03 01:29:49;;;;;;;15.85;5.82;;;;;;;;;;4911585;29;20072;-68
2022/08/03 01:32:39;;;;;;;15.15;6.88;;;;;;;;;;4911957;29;20413;-66
2022/08/03 01:35:58;;;;;;;14.88;6.25;;;;;;;;;;4895795;29;20059;-67
2022/08/03 01:38:34;;;;;;;18.08;6.22;;;;;;;;;;4888929;29;20557;-67
2022/08/03 01:41:11;;;;;;;16.27;6.78;;;;;;;;;;4890747;29;20057;-68
2022/08/03 01:43:47;;;;;;;13.60;7.07;;;;;;;;;;4892965;29;20052;-67
2022/08/03 01:46:39;;;;;;;14.75;6.10;;;;;;;;;;4888822;29;20061;-67
2022/08/03 01:49:17;;;;;;;17.98;6.05;;;;;;;;;;4888475;29;20053;-67
2022/08/03 01:51:50;;;;;;;17.30;6.45;;;;;;;;;;4873948;29;20057;-68
2022/08/03 01:54:40;;;;;;;18.45;6.28;;;;;;;;;;4911709;29;20060;-67
2022/08/03 01:57:12;;;;;;;17.98;6.03;;;;;;;;;;4908051;29;20049;-67
2022/08/03 01:59:44;;;;;;;14.65;6.97;;;;;;;;;;4892900;29;20410;-66
2022/08/03 02:02:16;;;;;;;18.55;6.20;;;;;;;;;;4946131;29;20512;-67
2022/08/03 02:05:05;;;;;;;14.38;6.25;;;;;;;;;;4934492;29;20564;-66
2022/08/03 02:07:45;;;;;;;17.60;6.25;;;;;;;;;;4922461;28;20050;-66
2022/08/03 02:10:19;;;;;;;18.80;6.22;;;;;;;;;;4968738;28;20047;-66
2022/08/03 02:13:07;;;;;;;19.27;6.25;;;;;;;;;;4953199;28;20058;-66
2022/08/03 02:15:38;;;;;;;14.68;5.60;;;;;;;;;;4958640;28;20066;-66
2022/08/03 02:18:10;;;;;;;18.90;6.32;;;;;;;;;;4967071;28;20095;-66
2022/08/03 02:20:43;;;;;;;11.57;5.82;;;;;;;;;;4953138;29;20047;-66
2022/08/03 02:23:17;;;;;;;15.43;6.43;;;;;;;;;;4976965;28;20193;-66
2022/08/03 02:25:52;;;;;;;11.13;5.50;;;;;;;;;;4972368;28;20046;-66
2022/08/03 02:28:31;;;;;;;17.92;6.03;;;;;;;;;;4976115;28;20073;-67
2022/08/03 02:31:10;;;;;;;14.88;5.70;;;;;;;;;;5030660;28;20067;-67
2022/08/03 02:33:52;;;;;;;15.23;5.97;;;;;;;;;;4974833;28;20057;-66
2022/08/03 02:36:30;;;;;;;15.63;7.03;;;;;;;;;;4991351;28;20682;-67
2022/08/03 02:39:02;;;;;;;18.17;5.93;;;;;;;;;;4991421;28;20062;-67
2022/08/03 02:41:41;;;;;;;14.77;5.75;;;;;;;;;;4991167;28;20090;-70
2022/08/03 02:44:12;;;;;;;17.35;6.00;;;;;;;;;;4952172;29;20052;-69
2022/08/03 02:46:46;;;;;;;11.82;5.60;;;;;;;;;;4921422;28;20058;-69
2022/08/03 02:49:17;;;;;;;13.45;4.93;;;;;;;;;;4943155;28;20065;-67
2022/08/03 02:52:10;;;;;;;14.05;5.97;;;;;;;;;;4977913;28;20506;-68
2022/08/03 02:54:45;;;;;;;13.63;6.45;;;;;;;;;;4990808;28;20391;-67
2022/08/03 02:57:18;;;;;;;;;;;;;;;;;;4939745;28;20047;-67
2022/08/03 02:59:49;;;;;;;17.42;5.50;;;;;;;;;;4951803;29;19929;-67
2022/08/03 03:02:20;;;;;;;15.65;6.20;;;;;;;;;;4952160;29;20055;-68
2022/08/03 03:04:52;;;;;;;12.63;5.93;;;;;;;;;;4936396;29;20059;-68
2022/08/03 03:07:44;;;;;;;13.05;5.20;;;;;;;;;;4952135;29;20058;-67
2022/08/03 03:10:22;;;;;;;14.35;5.82;;;;;;;;;;4915467;29;20817;-67
2022/08/03 03:12:56;;;;;;;16.13;5.35;;;;;;;;;;4932297;29;20067;-67
2022/08/03 03:15:28;;;;;;;14.95;5.28;;;;;;;;;;4932864;29;20082;-67
2022/08/03 03:18:00;;;;;;;18.40;6.35;;;;;;;;;;4932823;29;20079;-67
2022/08/03 03:20:32;;;;;;;16.60;6.18;;;;;;;;;;4901510;29;20079;-67
2022/08/03 03:23:04;;;;;;;13.95;5.88;;;;;;;;;;4951812;29;20059;-67
2022/08/03 03:25:35;;;;;;;22.15;5.70;;;;;;;;;;4951890;29;20055;-68
2022/08/03 03:28:07;;;;;;;14.35;5.38;;;;;;;;;;4951725;29;20511;-68
2022/08/03 03:30:37;;;;;;;15.27;5.57;;;;;;;;;;4932405;29;20078;-70
2022/08/03 03:33:07;;;;;;;11.13;5.32;;;;;;;;;;4947782;29;20063;-67
2022/08/03 03:35:40;;;;;;;17.33;6.82;;;;;;;;;;4919101;29;20698;-67
2022/08/03 03:38:11;;;;;;;11.35;5.40;;;;;;;;;;4951451;29;20066;-67
2022/08/03 03:40:41;;;;;;;13.35;5.57;;;;;;;;;;4951659;29;20066;-70
2022/08/03 03:43:12;;;;;;;16.42;5.78;;;;;;;;;;4951269;29;20055;-67
2022/08/03 03:45:43;;;;;;;14.75;5.40;;;;;;;;;;4951087;29;20051;-68
2022/08/03 03:48:13;;;;;;;11.07;5.20;;;;;;;;;;4931701;29;20047;-67
2022/08/03 03:50:44;;;;;;;14.18;6.00;;;;;;;;;;4912951;29;20560;-67
2022/08/03 03:53:14;;;;;;;12.65;5.45;;;;;;;;;;4881375;29;20079;-67
2022/08/03 03:55:45;;;;;;;11.90;5.93;;;;;;;;;;4882234;29;20060;-66
2022/08/03 03:58:32;;;;;;;13.35;5.57;;;;;;;;;;4913067;29;20081;-66
2022/08/03 04:01:02;;;;;;;10.38;5.22;;;;;;;;;;4913095;29;20089;-66
2022/08/03 04:03:32;;;;;;;17.02;6.63;;;;;;;;;;4912867;29;20067;-67
2022/08/03 04:10:57;;;;;;;13.63;5.95;;;;;;;;;;4869948;29;20061;-67
2022/08/03 04:11:57;;;;;;;12.35;4.68;;;;;;;;;;4827613;29;20056;-67
2022/08/03 04:14:33;;;;;;;11.10;5.18;;;;;;;;;;4892794;29;20060;-69
2022/08/03 04:17:08;;;;;;;14.02;4.85;;;;;;;;;;4893832;29;20105;-66
2022/08/03 04:19:50;;;;;;;12.38;5.18;;;;;;;;;;4893879;29;20056;-66
2022/08/03 04:22:25;;;;;;;9.70;5.20;;;;;;;;;;4877905;29;20429;-68
2022/08/03 04:25:04;;;;;;;16.98;5.50;;;;;;;;;;4900758;29;20152;-66
2022/08/03 04:27:37;;;;;;;13.85;5.93;;;;;;;;;;4957170;28;20058;-67
2022/08/03 04:30:10;;;;;;;13.55;5.28;;;;;;;;;;4989810;28;20577;-67
2022/08/03 04:32:44;;;;;;;10.57;4.93;;;;;;;;;;4989497;28;20199;-69
2022/08/03 04:35:18;;;;;;;13.38;5.03;;;;;;;;;;4989518;28;20075;-67
2022/08/03 04:37:52;;;;;;;12.07;4.95;;;;;;;;;;4989584;28;20061;-68
2022/08/03 04:40:30;;;;;;;11.30;5.35;;;;;;;;;;4950526;28;20048;-67
2022/08/03 04:43:02;;;;;;;10.80;5.55;;;;;;;;;;4955054;28;20067;-67
2022/08/03 04:45:33;;;;;;;13.13;5.10;;;;;;;;;;4937017;28;20058;-67
2022/08/03 04:48:05;;;;;;;10.52;4.82;;;;;;;;;;4956942;28;20058;-66
2022/08/03 04:50:36;;;;;;;11.57;5.38;;;;;;;;;;4985259;28;20058;-70
2022/08/03 04:53:07;;;;;;;10.27;5.70;;;;;;;;;;4969936;28;20455;-68
2022/08/03 04:55:37;;;;;;;11.65;5.43;;;;;;;;;;4969901;28;20059;-67
2022/08/03 04:58:07;;;;;;;10.57;5.28;;;;;;;;;;4950372;29;20051;-67
2022/08/03 05:00:38;;;;;;;15.27;5.30;;;;;;;;;;4950283;29;20055;-68
2022/08/03 05:03:09;;;;;;;11.05;4.72;;;;;;;;;;4946547;29;20520;-67
2022/08/03 05:05:53;;;;;;;17.52;4.85;;;;;;;;;;4906831;29;20202;-66
2022/08/03 05:08:37;;;;;;;13.55;6.03;;;;;;;;;;4893385;29;20060;-67
2022/08/03 05:11:15;;;;;;;8.93;4.43;;;;;;;;;;4893356;29;20057;-67
2022/08/03 05:13:46;;;;;;;9.40;5.07;;;;;;;;;;4893190;29;20045;-68
2022/08/03 05:16:17;;;;;;;13.50;5.47;;;;;;;;;;4908883;29;20064;-67
2022/08/03 05:18:48;;;;;;;15.27;5.05;;;;;;;;;;4927890;29;20062;-67
2022/08/03 05:21:18;;;;;;;11.45;5.28;;;;;;;;;;4931167;29;20581;-66
2022/08/03 05:23:48;;;;;;;10.05;5.03;;;;;;;;;;4960012;28;20073;-66
2022/08/03 05:26:19;;;;;;;12.95;5.00;;;;;;;;;;4969764;28;20069;-72
2022/08/03 05:28:49;;;;;;;11.50;4.68;;;;;;;;;;4926060;29;20050;-66
2022/08/03 05:31:19;;;;;;;10.13;5.28;;;;;;;;;;4911583;29;20056;-67
2022/08/03 05:33:49;;;;;;;10.07;4.63;;;;;;;;;;4911729;29;20052;-67
2022/08/03 05:36:20;;;;;;;11.20;5.35;;;;;;;;;;4900603;29;20056;-66
2022/08/03 05:38:50;;;;;;;11.02;5.10;;;;;;;;;;4897161;29;20071;-67
2022/08/03 05:41:20;;;;;;;11.15;5.30;;;;;;;;;;4894029;29;20056;-67
2022/08/03 05:44:05;;;;;;;11.05;4.40;;;;;;;;;;4962305;28;20097;-67
2022/08/03 05:46:36;;;;;;;10.20;4.60;;;;;;;;;;4915030;29;20539;-67
2022/08/03 05:49:06;;;;;;;12.75;4.82;;;;;;;;;;4914983;29;20052;-68
2022/08/03 05:51:36;;;;;;;12.25;4.85;;;;;;;;;;4862229;29;21022;-67
2022/08/03 05:54:06;;;;;;;9.75;4.65;;;;;;;;;;4861558;29;20160;-67
2022/08/03 05:56:39;;;;;;;10.52;4.97;;;;;;;;;;4877588;29;20529;-69
2022/08/03 05:59:10;;;;;;;12.90;4.70;;;;;;;;;;4839782;29;20050;-67
2022/08/03 06:02:01;;;;;;;11.70;4.60;;;;;;;;;;4840771;29;20062;-68
2022/08/03 06:04:31;;;;;;;11.57;4.80;;;;;;;;;;4818493;29;20069;-71
2022/08/03 06:07:01;;;;;;;11.52;5.35;;;;;;;;;;4808913;29;20058;-68
2022/08/03 06:09:32;;;;;;;10.35;5.53;;;;;;;;;;4829821;29;20451;-69
2022/08/03 06:12:22;;;;;;;11.35;5.43;;;;;;;;;;4812708;29;20066;-68
2022/08/03 06:14:53;;;;;;;10.63;4.63;;;;;;;;;;4858623;29;20053;-67
2022/08/03 06:17:23;;;;;;;14.45;4.70;;;;;;;;;;4821834;29;20129;-67
2022/08/03 06:19:54;;;;;;;12.13;4.95;;;;;;;;;;4790570;29;20067;-67
2022/08/03 06:22:25;;;;;;;11.73;5.07;;;;;;;;;;4804565;29;20063;-67
2022/08/03 06:24:57;;;;;;;18.40;5.90;;;;;;;;;;4831276;29;20419;-69
2022/08/03 06:27:38;;;;;;;15.18;5.38;;;;;;;;;;4809996;29;20438;-66
2022/08/03 06:30:10;;;;;;;10.30;4.88;;;;;;;;;;4855809;29;20065;-66
2022/08/03 06:32:41;;;;;;;11.07;5.05;;;;;;;;;;4839812;29;20065;-67
2022/08/03 06:35:20;;;;;;;12.38;4.97;;;;;;;;;;4791678;29;20519;-67
2022/08/03 06:37:52;;;;;;;9.15;4.40;;;;;;;;;;4839855;29;20061;-67
2022/08/03 06:40:32;;;;;;;11.05;5.25;;;;;;;;;;4839987;29;20057;-66
2022/08/03 06:43:03;;;;;;;11.60;4.78;;;;;;;;;;4855688;29;20077;-67
2022/08/03 06:45:40;;;;;;;11.13;5.18;;;;;;;;;;4891809;29;20048;-68
2022/08/03 06:48:15;;;;;;;11.75;4.68;;;;;;;;;;4894451;29;20056;-67
2022/08/03 06:50:45;;;;;;;10.20;4.97;;;;;;;;;;4857821;29;20563;-67
2022/08/03 06:53:16;;;;;;;10.48;4.88;;;;;;;;;;4858125;29;20057;-67
2022/08/03 06:55:49;;;;;;;10.63;4.45;;;;;;;;;;4843129;29;20594;-69
2022/08/03 06:58:23;;;;;;;10.02;4.57;;;;;;;;;;4824409;29;20058;-66
2022/08/03 07:00:53;;;;;;;9.98;4.88;;;;;;;;;;4839504;29;20068;-67
2022/08/03 07:03:23;;;;;;;9.77;4.53;;;;;;;;;;4854919;29;20067;-69
2022/08/03 07:05:54;;;;;;;14.07;4.95;;;;;;;;;;4877033;29;20532;-67
2022/08/03 07:08:24;;;;;;;12.38;4.85;;;;;;;;;;4876458;29;20061;-67
2022/08/03 07:11:02;;;;;;;12.10;5.20;;;;;;;;;;4891171;29;20056;-67
2022/08/03 07:13:32;;;;;;;10.18;4.88;;;;;;;;;;4910226;29;20060;-70
2022/08/03 07:16:03;;;;;;;11.63;4.97;;;;;;;;;;4946485;29;20054;-67
2022/08/03 07:18:33;;;;;;;9.30;4.32;;;;;;;;;;4932552;29;20063;-66
2022/08/03 07:21:03;;;;;;;10.88;4.53;;;;;;;;;;4932805;29;20060;-66
2022/08/03 07:23:33;;;;;;;12.20;5.22;;;;;;;;;;4928285;29;20055;-67
2022/08/03 07:26:05;;;;;;;9.68;4.10;;;;;;;;;;4930964;28;20046;-66
2022/08/03 07:28:35;;;;;;;8.85;4.75;;;;;;;;;;4959825;28;20376;-66
2022/08/03 07:31:05;;;;;;;8.63;4.50;;;;;;;;;;4951864;29;20074;-71
2022/08/03 07:33:35;;;;;;;9.35;4.97;;;;;;;;;;4951838;29;20063;-67
2022/08/03 07:36:06;;;;;;;9.57;4.45;;;;;;;;;;4951754;29;20059;-66
2022/08/03 07:38:36;;;;;;;14.13;4.78;;;;;;;;;;4962059;28;20058;-69
2022/08/03 07:41:07;;;;;;;9.32;4.63;;;;;;;;;;4955522;28;20226;-65
2022/08/03 07:43:37;;;;;;;9.88;4.68;;;;;;;;;;4951258;29;20051;-67
2022/08/03 07:46:07;;;;;;;9.25;4.53;;;;;;;;;;4932035;29;20586;-65
2022/08/03 07:48:38;;;;;;;15.90;5.13;;;;;;;;;;4943035;29;20062;-66
2022/08/03 07:51:08;;;;;;;10.98;4.22;;;;;;;;;;4967233;28;20055;-67
2022/08/03 07:53:38;;;;;;;9.52;5.25;;;;;;;;;;4970883;28;20051;-69
2022/08/03 07:56:16;;;;;;;11.88;4.90;;;;;;;;;;4991788;28;20058;-67
2022/08/03 07:58:46;;;;;;;11.10;5.22;;;;;;;;;;4989720;28;20510;-67
2022/08/03 08:01:18;;;;;;;11.80;5.20;;;;;;;;;;4970429;28;20094;-66
2022/08/03 08:03:49;;;;;;;9.13;5.13;;;;;;;;;;4970415;28;20384;-68
2022/08/03 08:06:21;;;;;;;12.32;4.85;;;;;;;;;;5009283;28;20057;-67
2022/08/03 08:08:53;;;;;;;9.02;4.35;;;;;;;;;;5009592;28;20058;-68
2022/08/03 08:11:24;;;;;;;12.85;5.03;;;;;;;;;;4953698;28;20046;-66
2022/08/03 08:13:54;;;;;;;12.68;5.32;;;;;;;;;;4970488;28;20058;-67
2022/08/03 08:16:24;;;;;;;15.35;5.30;;;;;;;;;;4970687;28;20051;-66
2022/08/03 08:18:54;;;;;;;10.68;5.28;;;;;;;;;;4970045;28;20051;-66
2022/08/03 08:21:25;;;;;;;12.77;5.25;;;;;;;;;;4969689;28;20050;-66
2022/08/03 08:24:16;;;;;;;14.05;4.82;;;;;;;;;;4983665;28;20058;-66
2022/08/03 08:26:48;;;;;;;9.77;4.60;;;;;;;;;;4969846;28;20062;-66
2022/08/03 08:29:22;;;;;;;13.15;4.55;;;;;;;;;;4989342;28;20494;-66
2022/08/03 08:31:52;;;;;;;11.85;6.15;;;;;;;;;;4989835;28;20429;-69
2022/08/03 08:34:23;;;;;;;10.65;4.93;;;;;;;;;;4989406;28;20069;-66
2022/08/03 08:36:53;;;;;;;10.82;5.28;;;;;;;;;;4937249;29;20104;-65
2022/08/03 08:39:23;;;;;;;11.38;5.03;;;;;;;;;;4918850;29;20056;-67
2022/08/03 08:41:53;;;;;;;9.02;4.88;;;;;;;;;;4928321;29;20059;-65
2022/08/03 08:44:24;;;;;;;11.98;4.60;;;;;;;;;;4853724;29;20060;-65
2022/08/03 08:46:56;;;;;;;13.13;6.10;;;;;;;;;;4893575;29;20420;-65
2022/08/03 08:49:28;;;;;;;13.95;5.10;;;;;;;;;;4902981;29;20048;-66
2022/08/03 08:52:00;;;;;;;15.40;5.15;;;;;;;;;;4917431;29;20052;-65
2022/08/03 08:54:32;;;;;;;12.77;5.45;;;;;;;;;;4931320;29;20444;-66
2022/08/03 08:57:04;;;;;;;13.98;5.03;;;;;;;;;;4952637;28;20067;-66
2022/08/03 08:59:58;;;;;;;10.60;4.82;;;;;;;;;;4969721;28;20077;-66
2022/08/03 09:02:30;;;;;;;13.25;4.80;;;;;;;;;;4950322;29;20430;-66
2022/08/03 09:05:01;;;;;;;10.68;5.72;;;;;;;;;;4930897;29;20432;-68
2022/08/03 09:07:36;;;;;;;12.40;4.70;;;;;;;;;;4911977;29;20060;-65
2022/08/03 09:10:08;;;;;;;8.85;4.88;;;;;;;;;;4931701;29;20048;-66
2022/08/03 09:12:50;;;;;;;10.23;4.78;;;;;;;;;;4934957;29;20064;-67
2022/08/03 09:15:23;;;;;;;;;;;;;;;;;;4967024;28;20055;-66
2022/08/03 09:17:56;;;;;;;15.23;4.45;;;;;;;;;;4973516;28;19922;-66
2022/08/03 09:20:29;;;;;;;;;;;;;;;;;;4973789;28;20531;-66
2022/08/03 09:23:07;;;;;;;11.13;4.20;;;;;;;;;;4973613;28;19922;-65
2022/08/03 09:26:00;;;;;;;9.13;4.40;;;;;;;;;;4937377;28;20059;-66
2022/08/03 09:28:35;;;;;;;11.45;5.72;;;;;;;;;;4953752;29;20396;-66
2022/08/03 09:31:35;;;;;;;9.57;4.60;;;;;;;;;;4921636;29;20048;-66
2022/08/03 09:34:10;;;;;;;11.45;4.88;;;;;;;;;;4941268;29;20051;-67
2022/08/03 09:36:45;;;;;;;10.75;4.32;;;;;;;;;;4953865;29;20059;-66
2022/08/03 09:39:30;;;;;;;10.18;4.40;;;;;;;;;;4954163;29;20066;-66
2022/08/03 09:42:13;;;;;;;13.85;4.50;;;;;;;;;;4936237;29;20078;-68
2022/08/03 09:44:48;;;;;;;10.23;5.28;;;;;;;;;;4959515;28;20422;-65
2022/08/03 09:47:30;;;;;;;12.35;5.32;;;;;;;;;;4979454;28;20054;-67
2022/08/03 09:50:11;;;;;;;13.48;5.53;;;;;;;;;;4992604;28;20167;-66
2022/08/03 09:52:42;;;;;;;10.35;4.75;;;;;;;;;;4960307;28;20065;-66
2022/08/03 09:55:22;;;;;;;11.05;4.95;;;;;;;;;;4992449;28;20195;-66
2022/08/03 09:58:13;;;;;;;;;;;;;;;;;;5015085;28;20053;-67
2022/08/03 10:00:58;;;;;;;13.25;5.05;;;;;;;;;;5031069;28;19928;-66
2022/08/03 10:03:34;;;;;;;12.23;5.03;;;;;;;;;;5031621;28;20054;-66
2022/08/03 10:06:26;;;;;;;12.60;6.25;;;;;;;;;;4992033;28;20058;-68
2022/08/03 10:09:07;;;;;;;14.25;6.13;;;;;;;;;;4992547;28;20058;-66
2022/08/03 10:11:39;;;;;;;12.63;5.72;;;;;;;;;;4980998;28;20489;-67
2022/08/03 10:14:18;;;;;;;11.25;6.05;;;;;;;;;;4976463;28;20065;-66
2022/08/03 10:16:49;;;;;;;12.63;5.93;;;;;;;;;;4992433;28;20069;-67
2022/08/03 10:19:19;;;;;;;13.35;5.60;;;;;;;;;;4972190;28;20144;-67
2022/08/03 10:21:55;;;;;;;13.13;5.70;;;;;;;;;;4971347;28;20051;-67
2022/08/03 10:24:29;;;;;;;13.27;6.97;;;;;;;;;;4972329;28;20622;-67
2022/08/03 10:27:06;;;;;;;17.15;5.32;;;;;;;;;;4956174;28;20054;-68
2022/08/03 10:30:02;;;;;;;12.50;6.32;;;;;;;;;;4918071;29;20420;-67
2022/08/03 10:32:38;;;;;;;11.10;4.88;;;;;;;;;;4933251;29;20063;-67
2022/08/03 10:35:20;;;;;;;11.32;5.28;;;;;;;;;;4933803;29;20048;-67
2022/08/03 10:38:02;;;;;;;16.40;5.43;;;;;;;;;;4922879;29;20096;-67
2022/08/03 10:40:34;;;;;;;10.45;5.10;;;;;;;;;;4895692;29;20076;-67
2022/08/03 10:43:44;;;;;;;12.40;5.63;;;;;;;;;;4905887;29;20066;-67
2022/08/03 10:46:18;;;;;;;15.32;5.45;;;;;;;;;;4910910;29;20072;-67
2022/08/03 10:48:51;;;;;;;11.60;5.68;;;;;;;;;;4929688;29;20068;-68
2022/08/03 10:51:23;;;;;;;10.90;5.25;;;;;;;;;;4914374;29;20051;-67
2022/08/03 10:53:53;;;;;;;13.52;5.72;;;;;;;;;;4914433;29;20056;-68
2022/08/03 10:59:49;;;;;;;12.25;5.50;;;;;;;;;;4933275;29;20051;-68
2022/08/03 11:02:20;;;;;;;15.32;6.68;;;;;;;;;;4917272;29;20048;-68
2022/08/03 11:05:26;;;;;;;18.85;6.75;;;;;;;;;;4914132;29;20063;-68
2022/08/03 11:08:18;;;;;;;15.43;6.05;;;;;;;;;;4929671;29;20052;-68
2022/08/03 11:10:51;;;;;;;17.25;5.90;;;;;;;;;;4908776;29;20057;-69
2022/08/03 11:13:24;;;;;;;14.13;5.95;;;;;;;;;;4914299;29;20052;-68
2022/08/03 11:15:57;;;;;;;15.60;5.95;;;;;;;;;;4913716;29;20056;-69
2022/08/03 11:18:32;;;;;;;13.90;6.20;;;;;;;;;;4913773;29;20063;-67
2022/08/03 11:21:03;;;;;;;11.75;5.60;;;;;;;;;;4913577;29;20091;-68
2022/08/03 11:23:47;;;;;;;17.02;5.70;;;;;;;;;;4913723;29;20495;-71
2022/08/03 11:26:34;;;;;;;20.73;6.55;;;;;;;;;;4963311;28;20046;-68
2022/08/03 11:29:32;;;;;;;20.80;8.55;;;;;;;;;;4990350;28;20062;-69
2022/08/03 11:32:03;;;;;;;20.40;8.90;;;;;;;;;;4916495;29;20405;-68
2022/08/03 11:34:54;;;;;;;18.98;8.25;;;;;;;;;;4893993;29;20573;-68
2022/08/03 11:37:25;;;;;;;21.27;8.48;;;;;;;;;;4894666;29;20417;-69
2022/08/03 11:40:01;;;;;;;16.67;6.82;;;;;;;;;;4863661;29;20059;-68
2022/08/03 11:42:35;;;;;;;17.92;7.03;;;;;;;;;;4922666;29;20043;-68
2022/08/03 11:45:08;;;;;;;19.67;6.97;;;;;;;;;;4932423;29;20056;-68
2022/08/03 11:47:40;;;;;;;12.85;6.60;;;;;;;;;;4914481;28;20526;-72
2022/08/03 11:50:20;;;;;;;16.50;7.07;;;;;;;;;;4951307;29;20055;-71
2022/08/03 11:52:53;;;;;;;17.80;6.97;;;;;;;;;;4932005;29;20052;-69
2022/08/03 11:55:24;;;;;;;13.80;6.88;;;;;;;;;;4912869;29;20156;-69
2022/08/03 11:57:59;;;;;;;15.52;7.03;;;;;;;;;;4878472;29;20094;-68
2022/08/03 12:00:50;;;;;;;19.90;6.55;;;;;;;;;;4857411;29;20064;-68
2022/08/03 12:03:21;;;;;;;13.25;6.57;;;;;;;;;;4856535;29;20061;-68
2022/08/03 12:05:53;;;;;;;20.20;7.47;;;;;;;;;;4856805;29;20198;-68
2022/08/03 12:08:26;;;;;;;18.40;7.32;;;;;;;;;;4882485;29;20053;-68
2022/08/03 12:10:58;;;;;;;16.48;7.13;;;;;;;;;;4875245;29;20563;-67
2022/08/03 12:13:50;;;;;;;11.70;6.80;;;;;;;;;;4893287;29;20059;-68
2022/08/03 12:16:46;;;;;;;17.48;7.35;;;;;;;;;;4874567;29;20442;-69
2022/08/03 12:19:16;;;;;;;15.10;7.75;;;;;;;;;;4877409;29;20425;-69
2022/08/03 12:21:50;;;;;;;23.95;10.30;;;;;;;;;;4893625;29;20069;-69
2022/08/03 12:24:28;;;;;;;;;;;;;;;;;;4892177;29;20064;-69
2022/08/03 12:26:58;;;;;;;20.60;10.52;;;;;;;;;;4896184;29;19930;-69
2022/08/03 12:29:28;;;;;;;26.38;13.48;;;;;;;;;;4912022;29;20408;-67
2022/08/03 12:31:59;;;;;;;23.52;13.55;;;;;;;;;;4911343;29;20060;-68
2022/08/03 12:34:48;;;;;;;29.52;15.38;;;;;;;;;;4912199;29;20048;-68
2022/08/03 12:37:20;;;;;;;31.95;14.90;;;;;;;;;;4912290;29;20059;-68
2022/08/03 12:39:54;;;;;;;33.78;14.15;;;;;;;;;;4908912;29;20064;-68
2022/08/03 12:42:36;;;;;;;30.63;12.70;;;;;;;;;;4928469;29;20052;-68
2022/08/03 12:45:19;;;;;;;;;;;;;;;;;;4892961;29;20091;-68
2022/08/03 12:47:54;;;;;;;25.35;11.07;;;;;;;;;;4899943;29;20436;-70
2022/08/03 12:50:27;;;;;;;34.33;14.75;;;;;;;;;;4889766;29;20673;-68
2022/08/03 12:53:01;;;;;;;29.23;14.02;;;;;;;;;;4890013;29;20061;-68
2022/08/03 12:55:35;;;;;;;;;;;;;;;;;;4912414;29;20063;-68
2022/08/03 12:58:38;;;;;;;27.58;11.38;;;;;;;;;;4912504;29;19927;-68
2022/08/03 13:01:09;;;;;;;48.28;19.90;;;;;;;;;;4865638;29;20056;-69
2022/08/03 13:03:47;;;;;;;31.50;13.70;;;;;;;;;;4892840;29;20071;-67
2022/08/03 13:06:25;;;;;;;19.67;10.93;;;;;;;;;;4893325;29;20064;-67
2022/08/03 13:09:04;;;;;;;31.90;15.18;;;;;;;;;;4892907;29;20060;-68
2022/08/03 13:11:36;;;;;;;33.53;18.50;;;;;;;;;;4893149;29;20492;-68
2022/08/03 13:14:27;;;;;;;35.08;14.88;;;;;;;;;;4893418;29;20060;-67
2022/08/03 13:16:57;;;;;;;66.53;32.05;;;;;;;;;;4887873;29;20072;-68
2022/08/03 13:19:27;;;;;;;43.15;22.35;;;;;;;;;;4881533;29;20075;-69
2022/08/03 13:21:58;;;;;;;30.52;14.63;;;;;;;;;;4919034;29;20054;-68
2022/08/03 13:24:33;;;;;;;28.13;15.90;;;;;;;;;;4930791;29;20420;-67
2022/08/03 13:27:05;;;;;;;40.53;23.20;;;;;;;;;;4930835;29;20607;-67
2022/08/03 13:29:56;;;;;;;23.05;11.93;;;;;;;;;;4950118;29;20060;-68
2022/08/03 13:32:26;;;;;;;27.10;14.38;;;;;;;;;;4957337;28;20130;-67
2022/08/03 13:34:57;;;;;;;31.23;17.30;;;;;;;;;;4949725;29;20066;-67
2022/08/03 13:37:28;;;;;;;27.52;13.18;;;;;;;;;;4949847;29;20562;-67
2022/08/03 13:40:00;;;;;;;24.20;13.55;;;;;;;;;;4949909;29;20063;-67
2022/08/03 13:42:35;;;;;;;25.88;14.38;;;;;;;;;;4957712;28;20065;-67
2022/08/03 13:45:08;;;;;;;21.17;12.52;;;;;;;;;;4956859;28;20076;-67
2022/08/03 13:47:39;;;;;;;48.85;25.92;;;;;;;;;;4960404;28;20054;-71
2022/08/03 13:50:09;;;;;;;29.55;17.42;;;;;;;;;;4969275;28;20554;-68
2022/08/03 13:52:39;;;;;;;17.00;10.25;;;;;;;;;;4968601;28;20058;-68
2022/08/03 13:55:10;;;;;;;15.43;8.23;;;;;;;;;;4936856;28;20062;-68
2022/08/03 13:57:40;;;;;;;16.35;8.40;;;;;;;;;;4971515;28;20046;-67
2022/08/03 14:00:31;;;;;;;16.17;7.35;;;;;;;;;;4972645;28;20054;-68
2022/08/03 14:03:02;;;;;;;14.18;7.75;;;;;;;;;;4972633;28;20787;-67
2022/08/03 14:05:43;;;;;;;14.80;7.35;;;;;;;;;;4972740;28;20067;-68
2022/08/03 14:08:13;;;;;;;16.15;8.30;;;;;;;;;;4987551;28;20066;-67
2022/08/03 14:10:44;;;;;;;19.20;10.57;;;;;;;;;;4991912;28;20058;-67
2022/08/03 14:13:15;;;;;;;15.95;6.78;;;;;;;;;;5021892;28;20521;-70
2022/08/03 14:15:47;;;;;;;13.93;7.80;;;;;;;;;;4994772;28;20498;-67
2022/08/03 14:18:20;;;;;;;14.77;7.28;;;;;;;;;;4971819;28;20059;-68
2022/08/03 14:20:58;;;;;;;12.32;7.10;;;;;;;;;;4955052;28;20050;-68
2022/08/03 14:23:36;;;;;;;13.48;4.85;;;;;;;;;;4972215;28;20526;-67
2022/08/03 14:26:08;;;;;;;12.25;5.70;;;;;;;;;;4972194;28;20046;-67
2022/08/03 14:28:39;;;;;;;9.80;5.07;;;;;;;;;;4972328;28;20162;-70
2022/08/03 14:31:09;;;;;;;12.95;4.65;;;;;;;;;;4956673;28;20554;-66
2022/08/03 14:34:00;;;;;;;7.53;3.78;;;;;;;;;;4972572;28;20062;-67
2022/08/03 14:36:31;;;;;;;7.22;3.60;;;;;;;;;;4991449;28;20047;-66
2022/08/03 14:39:03;;;;;;;8.60;3.55;;;;;;;;;;4991251;28;20089;-66
2022/08/03 14:41:33;;;;;;;5.00;2.88;;;;;;;;;;4991105;28;20138;-68
2022/08/03 14:44:03;;;;;;;6.25;3.45;;;;;;;;;;4991869;28;20058;-68
2022/08/03 14:46:34;;;;;;;6.88;3.15;;;;;;;;;;4971487;28;20051;-65
2022/08/03 14:49:04;;;;;;;5.90;2.97;;;;;;;;;;4971800;28;20057;-65
2022/08/03 14:51:55;;;;;;;6.95;3.50;;;;;;;;;;4971649;28;20061;-69
2022/08/03 14:54:25;;;;;;;9.38;3.38;;;;;;;;;;4989706;28;20085;-68
2022/08/03 14:56:55;;;;;;;6.75;3.13;;;;;;;;;;5008837;28;20054;-66
2022/08/03 14:59:26;;;;;;;6.70;3.42;;;;;;;;;;5011039;28;20058;-66
2022/08/03 15:02:16;;;;;;;;;;;;;;;;;;5011107;28;20615;-69
2022/08/03 15:04:52;;;;;;;8.32;3.63;;;;;;;;;;5010829;28;19954;-66
2022/08/03 15:07:22;;;;;;;8.30;3.20;;;;;;;;;;5010626;28;20054;-67
2022/08/03 15:09:52;;;;;;;8.90;3.40;;;;;;;;;;5010251;28;20057;-67
2022/08/03 15:12:22;;;;;;;6.25;3.20;;;;;;;;;;5010724;28;20054;-67
2022/08/03 15:14:52;;;;;;;5.68;2.95;;;;;;;;;;5026279;28;20057;-67
2022/08/03 15:17:23;;;;;;;7.72;3.28;;;;;;;;;;4997061;28;20049;-67
2022/08/03 15:19:53;;;;;;;5.60;3.20;;;;;;;;;;4990740;28;20054;-68
2022/08/03 15:22:44;;;;;;;7.18;3.17;;;;;;;;;;4990845;28;20058;-66
2022/08/03 15:25:14;;;;;;;7.40;3.08;;;;;;;;;;4990646;28;20495;-67
2022/08/03 15:28:05;;;;;;;6.93;2.90;;;;;;;;;;5010510;28;20065;-66